sensor_id;sensor_type;location;lat;lon;timestamp;pressure;altitude;pressure_sealevel;temperature;humidity
38786;BME280;24535;45.508;12.252;2022-07-29T00:01:00;101322.38;;;30.93;46.29
38786;BME280;24535;45.508;12.252;2022-07-29T00:03:26;101330.69;;;30.98;46.03
38786;BME280;24535;45.508;12.252;2022-07-29T00:05:52;101341.75;;;31.03;46.12
38786;BME280;24535;45.508;12.252;2022-07-29T00:08:18;101337.31;;;31.09;45.82
38786;BME280;24535;45.508;12.252;2022-07-29T00:10:44;101332.63;;;31.16;45.80
38786;BME280;24535;45.508;12.252;2022-07-29T00:13:10;101334.88;;;31.19;45.58
38786;BME280;24535;45.508;12.252;2022-07-29T00:15:35;101333.78;;;31.26;45.54
38786;BME280;24535;45.508;12.252;2022-07-29T00:18:01;101334.19;;;31.30;45.63
38786;BME280;24535;45.508;12.252;2022-07-29T00:20:26;101338.75;;;31.36;44.99
38786;BME280;24535;45.508;12.252;2022-07-29T00:22:52;101334.50;;;31.40;44.84
38786;BME280;24535;45.508;12.252;2022-07-29T00:25:18;101329.44;;;31.44;44.95
38786;BME280;24535;45.508;12.252;2022-07-29T00:27:44;101319.38;;;31.44;44.65
38786;BME280;24535;45.508;12.252;2022-07-29T00:30:18;101323.53;;;31.47;44.80
38786;BME280;24535;45.508;12.252;2022-07-29T00:32:47;101326.88;;;31.49;44.42
38786;BME280;24535;45.508;12.252;2022-07-29T00:35:12;101328.78;;;31.48;44.42
38786;BME280;24535;45.508;12.252;2022-07-29T00:37:56;101329.81;;;31.47;44.47
38786;BME280;24535;45.508;12.252;2022-07-29T00:40:21;101319.75;;;31.48;43.96
38786;BME280;24535;45.508;12.252;2022-07-29T00:42:49;101315.59;;;31.45;43.95
38786;BME280;24535;45.508;12.252;2022-07-29T00:45:16;101316.41;;;31.46;43.90
38786;BME280;24535;45.508;12.252;2022-07-29T00:47:42;101311.66;;;31.41;43.68
38786;BME280;24535;45.508;12.252;2022-07-29T00:50:09;101310.22;;;31.39;43.23
38786;BME280;24535;45.508;12.252;2022-07-29T00:52:36;101287.22;;;31.35;43.46
38786;BME280;24535;45.508;12.252;2022-07-29T00:55:04;101293.72;;;31.34;42.92
38786;BME280;24535;45.508;12.252;2022-07-29T00:57:30;101281.38;;;31.31;43.08
38786;BME280;24535;45.508;12.252;2022-07-29T00:59:55;101276.75;;;31.32;42.61
38786;BME280;24535;45.508;12.252;2022-07-29T01:02:21;101258.75;;;31.31;42.69
38786;BME280;24535;45.508;12.252;2022-07-29T01:04:46;101241.97;;;31.34;42.34
38786;BME280;24535;45.508;12.252;2022-07-29T01:07:12;101233.81;;;31.34;42.25
38786;BME280;24535;45.508;12.252;2022-07-29T01:09:38;101216.63;;;31.33;41.44
38786;BME280;24535;45.508;12.252;2022-07-29T01:12:04;101214.13;;;31.32;40.80
38786;BME280;24535;45.508;12.252;2022-07-29T01:14:30;101211.41;;;31.32;41.28
38786;BME280;24535;45.508;12.252;2022-07-29T01:17:04;101223.38;;;31.31;40.26
38786;BME280;24535;45.508;12.252;2022-07-29T01:22:06;101238.19;;;31.35;40.82
38786;BME280;24535;45.508;12.252;2022-07-29T01:28:29;101225.31;;;31.42;39.82
38786;BME280;24535;45.508;12.252;2022-07-29T01:30:56;101192.97;;;31.34;39.80
38786;BME280;24535;45.508;12.252;2022-07-29T01:33:48;101194.13;;;31.19;39.34
38786;BME280;24535;45.508;12.252;2022-07-29T01:39:28;101190.00;;;30.98;39.40
38786;BME280;24535;45.508;12.252;2022-07-29T01:42:02;101195.91;;;30.95;39.62
38786;BME280;24535;45.508;12.252;2022-07-29T01:44:54;101199.28;;;30.91;39.41
38786;BME280;24535;45.508;12.252;2022-07-29T01:47:23;101194.53;;;30.86;39.75
38786;BME280;24535;45.508;12.252;2022-07-29T01:49:53;101194.13;;;30.83;39.36
38786;BME280;24535;45.508;12.252;2022-07-29T01:52:31;101185.63;;;30.79;39.28
38786;BME280;24535;45.508;12.252;2022-07-29T01:55:03;101189.00;;;30.74;39.54
38786;BME280;24535;45.508;12.252;2022-07-29T01:57:31;101185.03;;;30.70;39.53
38786;BME280;24535;45.508;12.252;2022-07-29T01:59:59;101203.47;;;30.68;40.36
38786;BME280;24535;45.508;12.252;2022-07-29T02:02:29;101212.66;;;30.74;40.82
38786;BME280;24535;45.508;12.252;2022-07-29T02:04:57;101199.22;;;30.79;40.64
38786;BME280;24535;45.508;12.252;2022-07-29T02:07:25;101195.44;;;30.80;40.30
38786;BME280;24535;45.508;12.252;2022-07-29T02:09:54;101192.72;;;30.80;40.02
38786;BME280;24535;45.508;12.252;2022-07-29T02:12:20;101183.56;;;30.74;40.27
38786;BME280;24535;45.508;12.252;2022-07-29T02:14:51;101183.38;;;30.69;40.11
38786;BME280;24535;45.508;12.252;2022-07-29T02:17:25;101182.16;;;30.65;40.41
38786;BME280;24535;45.508;12.252;2022-07-29T02:19:54;101183.06;;;30.59;40.08
38786;BME280;24535;45.508;12.252;2022-07-29T02:22:21;101181.84;;;30.55;40.55
38786;BME280;24535;45.508;12.252;2022-07-29T02:24:50;101180.00;;;30.49;40.54
38786;BME280;24535;45.508;12.252;2022-07-29T02:27:17;101177.34;;;30.42;40.96
38786;BME280;24535;45.508;12.252;2022-07-29T02:29:46;101182.63;;;30.37;40.85
38786;BME280;24535;45.508;12.252;2022-07-29T02:32:13;101185.56;;;30.36;41.82
38786;BME280;24535;45.508;12.252;2022-07-29T02:34:41;101185.50;;;30.42;41.90
38786;BME280;24535;45.508;12.252;2022-07-29T02:37:09;101184.63;;;30.48;41.52
38786;BME280;24535;45.508;12.252;2022-07-29T02:39:36;101186.28;;;30.49;41.32
38786;BME280;24535;45.508;12.252;2022-07-29T02:42:05;101188.41;;;30.47;41.23
38786;BME280;24535;45.508;12.252;2022-07-29T02:44:31;101192.16;;;30.46;41.43
38786;BME280;24535;45.508;12.252;2022-07-29T02:47:20;101188.84;;;30.44;41.59
38786;BME280;24535;45.508;12.252;2022-07-29T02:50:10;101187.56;;;30.47;41.75
38786;BME280;24535;45.508;12.252;2022-07-29T02:52:57;101197.00;;;30.44;42.03
38786;BME280;24535;45.508;12.252;2022-07-29T02:55:37;101207.25;;;30.42;42.10
38786;BME280;24535;45.508;12.252;2022-07-29T02:58:13;101206.63;;;30.47;41.79
38786;BME280;24535;45.508;12.252;2022-07-29T03:00:41;101207.84;;;30.51;41.55
38786;BME280;24535;45.508;12.252;2022-07-29T03:03:11;101203.81;;;30.53;41.71
38786;BME280;24535;45.508;12.252;2022-07-29T03:05:37;101208.88;;;30.50;41.84
38786;BME280;24535;45.508;12.252;2022-07-29T03:08:05;101207.22;;;30.49;41.50
38786;BME280;24535;45.508;12.252;2022-07-29T03:10:33;101203.03;;;30.46;41.96
38786;BME280;24535;45.508;12.252;2022-07-29T03:12:59;101215.59;;;30.47;41.75
38786;BME280;24535;45.508;12.252;2022-07-29T03:15:25;101212.88;;;30.47;41.93
38786;BME280;24535;45.508;12.252;2022-07-29T03:17:52;101219.53;;;30.51;42.28
38786;BME280;24535;45.508;12.252;2022-07-29T03:20:18;101218.47;;;30.52;42.19
38786;BME280;24535;45.508;12.252;2022-07-29T03:22:44;101225.97;;;30.57;41.66
38786;BME280;24535;45.508;12.252;2022-07-29T03:25:16;101223.88;;;30.59;42.03
38786;BME280;24535;45.508;12.252;2022-07-29T03:27:43;101228.84;;;30.62;41.85
38786;BME280;24535;45.508;12.252;2022-07-29T03:30:10;101221.50;;;30.63;42.08
38786;BME280;24535;45.508;12.252;2022-07-29T03:32:36;101230.72;;;30.62;42.00
38786;BME280;24535;45.508;12.252;2022-07-29T03:35:02;101247.50;;;30.59;41.80
38786;BME280;24535;45.508;12.252;2022-07-29T03:37:28;101229.13;;;30.54;42.14
38786;BME280;24535;45.508;12.252;2022-07-29T03:39:56;101232.91;;;30.53;41.85
38786;BME280;24535;45.508;12.252;2022-07-29T03:42:25;101231.09;;;30.47;42.28
38786;BME280;24535;45.508;12.252;2022-07-29T03:44:52;101226.53;;;30.41;42.21
38786;BME280;24535;45.508;12.252;2022-07-29T03:47:23;101229.09;;;30.36;42.75
38786;BME280;24535;45.508;12.252;2022-07-29T03:49:52;101230.59;;;30.32;42.88
38786;BME280;24535;45.508;12.252;2022-07-29T03:52:19;101234.38;;;30.31;43.03
38786;BME280;24535;45.508;12.252;2022-07-29T03:54:46;101222.69;;;30.23;43.00
38786;BME280;24535;45.508;12.252;2022-07-29T03:57:13;101226.69;;;30.21;43.46
38786;BME280;24535;45.508;12.252;2022-07-29T03:59:41;101227.97;;;30.18;43.13
38786;BME280;24535;45.508;12.252;2022-07-29T04:02:09;101224.19;;;30.13;43.35
38786;BME280;24535;45.508;12.252;2022-07-29T04:04:36;101227.34;;;30.10;43.76
38786;BME280;24535;45.508;12.252;2022-07-29T04:07:03;101225.50;;;30.10;43.86
38786;BME280;24535;45.508;12.252;2022-07-29T04:09:28;101222.97;;;30.09;43.80
38786;BME280;24535;45.508;12.252;2022-07-29T04:11:54;101223.81;;;30.09;44.17
38786;BME280;24535;45.508;12.252;2022-07-29T04:14:20;101224.25;;;30.06;43.86
38786;BME280;24535;45.508;12.252;2022-07-29T04:16:45;101231.63;;;29.99;44.14
38786;BME280;24535;45.508;12.252;2022-07-29T04:19:11;101228.69;;;29.94;44.25
38786;BME280;24535;45.508;12.252;2022-07-29T04:21:40;101230.19;;;29.90;44.36
38786;BME280;24535;45.508;12.252;2022-07-29T04:24:07;101243.19;;;29.88;44.67
38786;BME280;24535;45.508;12.252;2022-07-29T04:26:33;101244.22;;;29.87;44.40
38786;BME280;24535;45.508;12.252;2022-07-29T04:28:59;101234.84;;;29.83;44.78
38786;BME280;24535;45.508;12.252;2022-07-29T04:31:24;101239.88;;;29.79;44.75
38786;BME280;24535;45.508;12.252;2022-07-29T04:33:50;101242.84;;;29.71;45.12
38786;BME280;24535;45.508;12.252;2022-07-29T04:36:15;101238.69;;;29.68;44.88
38786;BME280;24535;45.508;12.252;2022-07-29T04:38:41;101236.38;;;29.72;45.53
38786;BME280;24535;45.508;12.252;2022-07-29T04:41:06;101233.66;;;29.72;45.24
38786;BME280;24535;45.508;12.252;2022-07-29T04:43:36;101242.84;;;29.71;45.58
38786;BME280;24535;45.508;12.252;2022-07-29T04:48:32;101238.06;;;29.66;46.05
38786;BME280;24535;45.508;12.252;2022-07-29T04:50:57;101245.16;;;29.67;45.46
38786;BME280;24535;45.508;12.252;2022-07-29T04:53:23;101246.41;;;29.71;46.03
38786;BME280;24535;45.508;12.252;2022-07-29T04:55:49;101254.97;;;29.75;45.89
38786;BME280;24535;45.508;12.252;2022-07-29T04:58:14;101241.97;;;29.77;46.17
38786;BME280;24535;45.508;12.252;2022-07-29T05:00:40;101244.03;;;29.81;46.13
38786;BME280;24535;45.508;12.252;2022-07-29T05:03:06;101244.66;;;29.84;46.17
38786;BME280;24535;45.508;12.252;2022-07-29T05:05:31;101252.16;;;29.88;45.77
38786;BME280;24535;45.508;12.252;2022-07-29T05:07:57;101250.91;;;29.91;45.82
38786;BME280;24535;45.508;12.252;2022-07-29T05:10:23;101247.72;;;29.94;45.67
38786;BME280;24535;45.508;12.252;2022-07-29T05:12:48;101254.19;;;29.99;45.91
38786;BME280;24535;45.508;12.252;2022-07-29T05:15:14;101260.03;;;30.03;45.90
38786;BME280;24535;45.508;12.252;2022-07-29T05:17:39;101263.97;;;30.07;45.71
38786;BME280;24535;45.508;12.252;2022-07-29T05:20:05;101267.91;;;30.11;45.26
38786;BME280;24535;45.508;12.252;2022-07-29T05:22:31;101278.16;;;30.16;45.17
38786;BME280;24535;45.508;12.252;2022-07-29T05:24:56;101279.81;;;30.17;45.48
38786;BME280;24535;45.508;12.252;2022-07-29T05:27:22;101277.94;;;30.17;45.47
38786;BME280;24535;45.508;12.252;2022-07-29T05:29:47;101277.72;;;30.19;45.28
38786;BME280;24535;45.508;12.252;2022-07-29T05:32:16;101288.09;;;30.28;45.09
38786;BME280;24535;45.508;12.252;2022-07-29T05:34:42;101287.06;;;30.29;44.89
38786;BME280;24535;45.508;12.252;2022-07-29T05:37:10;101280.13;;;30.34;44.74
38786;BME280;24535;45.508;12.252;2022-07-29T05:39:38;101305.63;;;30.39;45.11
38786;BME280;24535;45.508;12.252;2022-07-29T05:42:08;101299.34;;;30.39;45.02
38786;BME280;24535;45.508;12.252;2022-07-29T05:44:36;101295.13;;;30.43;44.91
38786;BME280;24535;45.508;12.252;2022-07-29T05:47:02;101293.41;;;30.48;44.87
38786;BME280;24535;45.508;12.252;2022-07-29T05:49:27;101287.31;;;30.53;45.11
38786;BME280;24535;45.508;12.252;2022-07-29T05:51:53;101285.38;;;30.60;44.75
38786;BME280;24535;45.508;12.252;2022-07-29T05:54:18;101294.09;;;30.69;44.69
38786;BME280;24535;45.508;12.252;2022-07-29T05:56:44;101288.41;;;30.70;44.53
38786;BME280;24535;45.508;12.252;2022-07-29T05:59:09;101292.00;;;30.71;44.65
38786;BME280;24535;45.508;12.252;2022-07-29T06:01:34;101297.44;;;30.71;44.34
38786;BME280;24535;45.508;12.252;2022-07-29T06:04:04;101301.81;;;30.72;44.36
38786;BME280;24535;45.508;12.252;2022-07-29T06:06:30;101306.22;;;30.73;44.22
38786;BME280;24535;45.508;12.252;2022-07-29T06:08:55;101310.16;;;30.70;43.98
38786;BME280;24535;45.508;12.252;2022-07-29T06:11:21;101308.31;;;30.71;44.21
38786;BME280;24535;45.508;12.252;2022-07-29T06:13:46;101311.88;;;30.71;44.14
38786;BME280;24535;45.508;12.252;2022-07-29T06:16:12;101312.28;;;30.75;44.28
38786;BME280;24535;45.508;12.252;2022-07-29T06:18:38;101316.22;;;30.79;44.00
38786;BME280;24535;45.508;12.252;2022-07-29T06:21:07;101318.28;;;30.84;43.95
38786;BME280;24535;45.508;12.252;2022-07-29T06:23:33;101322.66;;;30.85;43.78
38786;BME280;24535;45.508;12.252;2022-07-29T06:25:59;101327.03;;;30.86;43.57
38786;BME280;24535;45.508;12.252;2022-07-29T06:28:25;101324.31;;;30.86;43.75
38786;BME280;24535;45.508;12.252;2022-07-29T06:30:51;101325.16;;;30.86;43.81
38786;BME280;24535;45.508;12.252;2022-07-29T06:33:18;101327.66;;;30.88;43.47
38786;BME280;24535;45.508;12.252;2022-07-29T06:35:44;101327.00;;;30.92;43.76
38786;BME280;24535;45.508;12.252;2022-07-29T06:38:10;101325.25;;;30.98;43.28
38786;BME280;24535;45.508;12.252;2022-07-29T06:40:41;101329.00;;;31.03;43.12
38786;BME280;24535;45.508;12.252;2022-07-29T06:43:26;101338.72;;;31.11;42.97
38786;BME280;24535;45.508;12.252;2022-07-29T06:45:52;101333.69;;;31.15;42.73
38786;BME280;24535;45.508;12.252;2022-07-29T06:48:17;101328.03;;;31.16;42.69
38786;BME280;24535;45.508;12.252;2022-07-29T06:50:43;101330.06;;;31.21;42.25
38786;BME280;24535;45.508;12.252;2022-07-29T06:53:08;101326.44;;;31.27;42.65
38786;BME280;24535;45.508;12.252;2022-07-29T06:55:34;101318.63;;;31.37;42.95
38786;BME280;24535;45.508;12.252;2022-07-29T06:57:59;101316.56;;;31.51;42.99
38786;BME280;24535;45.508;12.252;2022-07-29T07:00:25;101318.09;;;31.65;42.60
38786;BME280;24535;45.508;12.252;2022-07-29T07:02:50;101318.38;;;31.75;41.82
38786;BME280;24535;45.508;12.252;2022-07-29T07:05:16;101326.72;;;31.81;41.64
38786;BME280;24535;45.508;12.252;2022-07-29T07:07:41;101327.38;;;31.76;41.45
38786;BME280;24535;45.508;12.252;2022-07-29T07:10:07;101332.69;;;31.71;41.25
38786;BME280;24535;45.508;12.252;2022-07-29T07:12:32;101326.84;;;31.67;41.74
38786;BME280;24535;45.508;12.252;2022-07-29T07:14:58;101333.00;;;31.63;41.63
38786;BME280;24535;45.508;12.252;2022-07-29T07:17:23;101330.50;;;31.61;41.70
38786;BME280;24535;45.508;12.252;2022-07-29T07:30:04;101324.38;;;31.84;41.02
38786;BME280;24535;45.508;12.252;2022-07-29T07:32:36;101320.13;;;31.88;40.87
38786;BME280;24535;45.508;12.252;2022-07-29T07:35:05;101329.16;;;31.89;40.62
38786;BME280;24535;45.508;12.252;2022-07-29T07:37:31;101321.44;;;31.86;40.83
38786;BME280;24535;45.508;12.252;2022-07-29T07:39:59;101321.84;;;31.83;40.75
38786;BME280;24535;45.508;12.252;2022-07-29T07:42:26;101322.28;;;31.80;40.92
38786;BME280;24535;45.508;12.252;2022-07-29T07:44:51;101316.00;;;31.79;40.73
38786;BME280;24535;45.508;12.252;2022-07-29T07:47:17;101313.66;;;31.83;40.96
38786;BME280;24535;45.508;12.252;2022-07-29T07:49:47;101312.78;;;31.89;40.72
38786;BME280;24535;45.508;12.252;2022-07-29T07:54:48;101305.59;;;32.36;40.69
38786;BME280;24535;45.508;12.252;2022-07-29T07:57:15;101315.34;;;32.86;40.63
38786;BME280;24535;45.508;12.252;2022-07-29T07:59:41;101316.88;;;33.40;40.00
38786;BME280;24535;45.508;12.252;2022-07-29T08:02:07;101312.13;;;34.00;39.11
38786;BME280;24535;45.508;12.252;2022-07-29T08:04:33;101318.38;;;34.57;37.89
38786;BME280;24535;45.508;12.252;2022-07-29T08:06:59;101313.97;;;35.07;37.21
38786;BME280;24535;45.508;12.252;2022-07-29T08:09:26;101322.28;;;35.51;36.65
38786;BME280;24535;45.508;12.252;2022-07-29T08:11:55;101310.19;;;35.96;36.19
38786;BME280;24535;45.508;12.252;2022-07-29T08:14:21;101318.88;;;36.42;36.05
38786;BME280;24535;45.508;12.252;2022-07-29T08:16:48;101315.72;;;36.87;35.28
38786;BME280;24535;45.508;12.252;2022-07-29T08:19:14;101324.19;;;37.23;34.44
38786;BME280;24535;45.508;12.252;2022-07-29T08:21:40;101323.03;;;37.56;33.92
38786;BME280;24535;45.508;12.252;2022-07-29T08:24:08;101323.94;;;37.77;33.05
38786;BME280;24535;45.508;12.252;2022-07-29T08:27:00;101324.59;;;38.04;32.07
38786;BME280;24535;45.508;12.252;2022-07-29T08:32:06;101332.34;;;38.48;31.20
38786;BME280;24535;45.508;12.252;2022-07-29T08:34:38;101327.97;;;38.63;32.08
38786;BME280;24535;45.508;12.252;2022-07-29T08:37:03;101327.41;;;38.71;31.87
38786;BME280;24535;45.508;12.252;2022-07-29T08:39:29;101327.94;;;38.73;31.14
38786;BME280;24535;45.508;12.252;2022-07-29T08:41:55;101320.78;;;38.72;31.19
38786;BME280;24535;45.508;12.252;2022-07-29T08:44:27;101327.41;;;38.50;30.52
38786;BME280;24535;45.508;12.252;2022-07-29T08:46:53;101330.13;;;38.30;31.61
38786;BME280;24535;45.508;12.252;2022-07-29T08:49:22;101339.72;;;38.12;31.51
38786;BME280;24535;45.508;12.252;2022-07-29T08:51:51;101337.19;;;37.90;31.75
38786;BME280;24535;45.508;12.252;2022-07-29T08:54:43;101335.47;;;37.74;31.24
38786;BME280;24535;45.508;12.252;2022-07-29T08:57:13;101331.00;;;37.57;31.69
38786;BME280;24535;45.508;12.252;2022-07-29T08:59:42;101335.88;;;37.40;32.03
38786;BME280;24535;45.508;12.252;2022-07-29T09:02:20;101319.50;;;37.18;32.13
38786;BME280;24535;45.508;12.252;2022-07-29T09:04:49;101313.06;;;36.97;32.85
38786;BME280;24535;45.508;12.252;2022-07-29T09:07:17;101317.88;;;36.80;33.43
38786;BME280;24535;45.508;12.252;2022-07-29T09:09:43;101311.47;;;36.69;32.75
38786;BME280;24535;45.508;12.252;2022-07-29T09:18:05;101316.94;;;36.37;32.52
38786;BME280;24535;45.508;12.252;2022-07-29T09:20:31;101293.19;;;36.21;32.80
38786;BME280;24535;45.508;12.252;2022-07-29T09:29:47;101310.22;;;35.74;33.13
38786;BME280;24535;45.508;12.252;2022-07-29T09:32:12;101307.34;;;35.63;33.39
38786;BME280;24535;45.508;12.252;2022-07-29T09:34:38;101292.13;;;35.51;33.19
38786;BME280;24535;45.508;12.252;2022-07-29T09:37:03;101290.63;;;35.43;33.22
38786;BME280;24535;45.508;12.252;2022-07-29T09:39:34;101289.22;;;35.40;32.99
38786;BME280;24535;45.508;12.252;2022-07-29T09:42:05;101298.13;;;35.31;32.82
38786;BME280;24535;45.508;12.252;2022-07-29T09:44:43;101293.09;;;35.23;33.13
38786;BME280;24535;45.508;12.252;2022-07-29T09:47:09;101290.22;;;35.12;33.28
38786;BME280;24535;45.508;12.252;2022-07-29T09:49:36;101287.59;;;35.01;33.39
38786;BME280;24535;45.508;12.252;2022-07-29T09:52:14;101289.31;;;34.90;33.65
38786;BME280;24535;45.508;12.252;2022-07-29T09:54:40;101278.47;;;34.78;33.73
38786;BME280;24535;45.508;12.252;2022-07-29T09:57:07;101281.13;;;34.73;33.35
38786;BME280;24535;45.508;12.252;2022-07-29T09:59:38;101281.38;;;34.72;33.63
38786;BME280;24535;45.508;12.252;2022-07-29T10:02:14;101272.50;;;34.64;34.06
38786;BME280;24535;45.508;12.252;2022-07-29T10:04:45;101277.47;;;34.67;33.44
38786;BME280;24535;45.508;12.252;2022-07-29T10:07:11;101271.34;;;34.60;33.88
38786;BME280;24535;45.508;12.252;2022-07-29T10:09:36;101278.63;;;34.55;33.93
38786;BME280;24535;45.508;12.252;2022-07-29T10:12:09;101274.63;;;34.45;34.19
38786;BME280;24535;45.508;12.252;2022-07-29T10:14:35;101274.28;;;34.42;34.41
38786;BME280;24535;45.508;12.252;2022-07-29T10:17:02;101273.41;;;34.36;34.38
38786;BME280;24535;45.508;12.252;2022-07-29T10:22:50;101281.25;;;34.33;34.58
38786;BME280;24535;45.508;12.252;2022-07-29T10:29:00;101266.25;;;34.35;34.89
38786;BME280;24535;45.508;12.252;2022-07-29T10:31:37;101268.25;;;34.40;34.95
38786;BME280;24535;45.508;12.252;2022-07-29T11:10:51;101220.59;;;34.53;34.90
38786;BME280;24535;45.508;12.252;2022-07-29T11:13:52;101224.16;;;34.53;35.08
38786;BME280;24535;45.508;12.252;2022-07-29T11:17:02;101224.66;;;34.50;35.40
38786;BME280;24535;45.508;12.252;2022-07-29T11:19:29;101229.56;;;34.48;35.15
38786;BME280;24535;45.508;12.252;2022-07-29T11:21:55;101216.91;;;34.47;35.07
38786;BME280;24535;45.508;12.252;2022-07-29T11:24:30;101215.88;;;34.48;35.60
38786;BME280;24535;45.508;12.252;2022-07-29T11:27:17;101219.56;;;34.42;35.77
38786;BME280;24535;45.508;12.252;2022-07-29T11:29:56;101222.22;;;34.37;35.53
38786;BME280;24535;45.508;12.252;2022-07-29T11:32:24;101217.50;;;34.32;35.61
38786;BME280;24535;45.508;12.252;2022-07-29T11:35:23;101223.22;;;34.31;35.92
38786;BME280;24535;45.508;12.252;2022-07-29T11:38:25;101219.41;;;34.32;36.26
38786;BME280;24535;45.508;12.252;2022-07-29T11:43:53;101215.09;;;34.36;36.06
38786;BME280;24535;45.508;12.252;2022-07-29T11:46:48;101209.38;;;34.37;35.86
38786;BME280;24535;45.508;12.252;2022-07-29T11:49:34;101204.72;;;34.38;35.78
38786;BME280;24535;45.508;12.252;2022-07-29T11:52:00;101209.69;;;34.41;35.70
38786;BME280;24535;45.508;12.252;2022-07-29T11:54:34;101205.31;;;34.40;35.23
38786;BME280;24535;45.508;12.252;2022-07-29T11:57:00;101202.88;;;34.43;35.64
38786;BME280;24535;45.508;12.252;2022-07-29T11:59:25;101206.22;;;34.45;35.28
38786;BME280;24535;45.508;12.252;2022-07-29T12:01:59;101205.94;;;34.47;34.50
38786;BME280;24535;45.508;12.252;2022-07-29T12:04:28;101204.94;;;34.48;35.27
38786;BME280;24535;45.508;12.252;2022-07-29T12:06:54;101204.31;;;34.46;34.91
38786;BME280;24535;45.508;12.252;2022-07-29T12:09:23;101204.41;;;34.51;34.25
38786;BME280;24535;45.508;12.252;2022-07-29T12:11:49;101206.09;;;34.52;34.50
38786;BME280;24535;45.508;12.252;2022-07-29T12:14:31;101206.38;;;34.56;34.35
38786;BME280;24535;45.508;12.252;2022-07-29T12:16:57;101199.84;;;34.57;34.31
38786;BME280;24535;45.508;12.252;2022-07-29T12:19:23;101202.59;;;34.57;34.33
38786;BME280;24535;45.508;12.252;2022-07-29T12:21:54;101198.16;;;34.56;34.43
38786;BME280;24535;45.508;12.252;2022-07-29T12:24:21;101197.13;;;34.57;34.60
38786;BME280;24535;45.508;12.252;2022-07-29T12:26:51;101200.91;;;34.56;34.75
38786;BME280;24535;45.508;12.252;2022-07-29T12:29:17;101199.19;;;34.50;34.59
38786;BME280;24535;45.508;12.252;2022-07-29T12:31:43;101194.66;;;34.43;34.82
38786;BME280;24535;45.508;12.252;2022-07-29T12:34:15;101196.03;;;34.41;34.51
38786;BME280;24535;45.508;12.252;2022-07-29T12:40:05;101191.53;;;34.35;34.62
38786;BME280;24535;45.508;12.252;2022-07-29T12:42:32;101194.53;;;34.33;34.41
38786;BME280;24535;45.508;12.252;2022-07-29T12:44:58;101181.09;;;34.32;34.85
38786;BME280;24535;45.508;12.252;2022-07-29T12:47:24;101191.53;;;34.35;34.32
38786;BME280;24535;45.508;12.252;2022-07-29T12:50:12;101194.03;;;34.36;34.23
38786;BME280;24535;45.508;12.252;2022-07-29T12:52:44;101189.88;;;34.34;34.08
38786;BME280;24535;45.508;12.252;2022-07-29T12:55:12;101182.84;;;34.38;33.45
38786;BME280;24535;45.508;12.252;2022-07-29T12:58:07;101186.88;;;34.35;33.48
38786;BME280;24535;45.508;12.252;2022-07-29T13:17:24;101170.72;;;34.34;33.35
38786;BME280;24535;45.508;12.252;2022-07-29T13:20:12;101173.31;;;34.40;33.08
38786;BME280;24535;45.508;12.252;2022-07-29T13:22:47;101163.75;;;34.43;33.10
38786;BME280;24535;45.508;12.252;2022-07-29T13:25:13;101161.00;;;34.43;33.31
38786;BME280;24535;45.508;12.252;2022-07-29T13:27:39;101159.94;;;34.44;33.41
38786;BME280;24535;45.508;12.252;2022-07-29T13:30:07;101146.25;;;34.44;33.45
38786;BME280;24535;45.508;12.252;2022-07-29T13:32:34;101142.44;;;34.45;33.27
38786;BME280;24535;45.508;12.252;2022-07-29T13:35:02;101137.19;;;34.43;33.92
38786;BME280;24535;45.508;12.252;2022-07-29T13:37:28;101139.13;;;34.43;33.63
38786;BME280;24535;45.508;12.252;2022-07-29T13:39:57;101131.66;;;34.38;34.15
38786;BME280;24535;45.508;12.252;2022-07-29T13:42:23;101136.25;;;34.33;33.43
38786;BME280;24535;45.508;12.252;2022-07-29T13:44:50;101128.59;;;34.35;33.11
38786;BME280;24535;45.508;12.252;2022-07-29T13:47:20;101121.81;;;34.37;34.00
38786;BME280;24535;45.508;12.252;2022-07-29T13:49:46;101112.44;;;34.33;33.66
38786;BME280;24535;45.508;12.252;2022-07-29T13:52:15;101117.16;;;34.38;32.89
38786;BME280;24535;45.508;12.252;2022-07-29T13:54:41;101103.41;;;34.33;33.43
38786;BME280;24535;45.508;12.252;2022-07-29T13:57:07;101100.34;;;34.29;33.29
38786;BME280;24535;45.508;12.252;2022-07-29T13:59:33;101103.09;;;34.29;33.77
38786;BME280;24535;45.508;12.252;2022-07-29T14:01:58;101105.22;;;34.27;33.07
38786;BME280;24535;45.508;12.252;2022-07-29T14:04:24;101096.72;;;34.24;33.53
38786;BME280;24535;45.508;12.252;2022-07-29T14:06:50;101094.81;;;34.24;33.19
38786;BME280;24535;45.508;12.252;2022-07-29T14:09:15;101094.81;;;34.24;33.77
38786;BME280;24535;45.508;12.252;2022-07-29T14:11:41;101087.91;;;34.22;33.89
38786;BME280;24535;45.508;12.252;2022-07-29T14:16:41;101096.88;;;34.17;33.84
38786;BME280;24535;45.508;12.252;2022-07-29T14:19:07;101086.19;;;34.15;33.50
38786;BME280;24535;45.508;12.252;2022-07-29T14:21:32;101091.69;;;34.15;32.97
38786;BME280;24535;45.508;12.252;2022-07-29T14:23:58;101084.53;;;34.14;33.26
38786;BME280;24535;45.508;12.252;2022-07-29T14:26:23;101102.03;;;34.13;32.70
38786;BME280;24535;45.508;12.252;2022-07-29T14:28:49;101111.06;;;34.14;32.70
38786;BME280;24535;45.508;12.252;2022-07-29T14:31:17;101099.28;;;34.13;32.60
38786;BME280;24535;45.508;12.252;2022-07-29T14:33:49;101109.97;;;34.15;33.07
38786;BME280;24535;45.508;12.252;2022-07-29T14:36:15;101106.41;;;34.14;32.70
38786;BME280;24535;45.508;12.252;2022-07-29T14:38:40;101109.97;;;34.15;32.98